createdAt,value
2023-04-29T00:01:30.746Z,99.90
2023-04-29T00:03:59.817Z,99.90
2023-04-29T00:06:28.631Z,99.90
2023-04-29T00:08:57.289Z,99.90
2023-04-29T00:11:25.836Z,99.90
2023-04-29T00:13:54.360Z,99.90
2023-04-29T00:16:23.257Z,99.90
2023-04-29T00:18:53.252Z,99.90
2023-04-29T00:21:22.222Z,99.90
2023-04-29T00:23:51.269Z,99.90
2023-04-29T00:26:19.874Z,99.90
2023-04-29T00:28:49.014Z,99.90
2023-04-29T00:31:17.720Z,99.90
2023-04-29T00:33:46.597Z,99.90
2023-04-29T00:36:16.537Z,99.90
2023-04-29T00:38:45.061Z,99.90
2023-04-29T00:41:13.663Z,99.90
2023-04-29T00:43:42.200Z,99.90
2023-04-29T00:46:10.767Z,99.90
2023-04-29T00:48:39.689Z,99.90
2023-04-29T00:51:08.893Z,99.90
2023-04-29T00:53:39.528Z,99.90
2023-04-29T00:56:09.010Z,99.90
2023-04-29T00:58:39.474Z,99.90
2023-04-29T01:01:08.644Z,99.90
2023-04-29T01:03:37.564Z,99.90
2023-04-29T01:06:10.917Z,99.90
2023-04-29T01:08:53.872Z,99.90
2023-04-29T01:11:26.576Z,99.90
2023-04-29T01:14:00.683Z,99.90
2023-04-29T01:16:36.072Z,99.90
2023-04-29T01:19:14.153Z,99.90
2023-04-29T01:21:49.294Z,99.90
2023-04-29T01:24:19.384Z,99.90
2023-04-29T01:26:56.332Z,99.90
2023-04-29T01:29:34.194Z,99.90
2023-04-29T01:32:09.351Z,99.90
2023-04-29T01:34:48.705Z,99.90
2023-04-29T01:37:24.390Z,99.90
2023-04-29T01:40:02.076Z,99.90
2023-04-29T01:42:37.844Z,99.90
2023-04-29T01:45:10.075Z,99.90
2023-04-29T01:47:40.261Z,99.90
2023-04-29T01:50:09.658Z,99.90
2023-04-29T01:52:38.225Z,99.90
2023-04-29T01:55:09.981Z,99.90
2023-04-29T01:57:38.586Z,99.90
2023-04-29T02:00:09.312Z,99.90
2023-04-29T02:02:38.180Z,99.90
2023-04-29T02:05:07.577Z,99.90
2023-04-29T02:07:36.201Z,99.90
2023-04-29T02:10:04.871Z,99.90
2023-04-29T02:12:34.935Z,99.90
2023-04-29T02:15:03.596Z,99.90
2023-04-29T02:17:32.091Z,99.90
2023-04-29T02:20:00.651Z,99.90
2023-04-29T02:22:29.206Z,99.90
2023-04-29T02:24:58.433Z,99.90
2023-04-29T02:27:27.428Z,99.90
2023-04-29T02:29:57.662Z,99.90
2023-04-29T02:32:26.229Z,99.90
2023-04-29T02:34:54.844Z,99.90
2023-04-29T02:37:23.634Z,99.90
2023-04-29T02:39:53.066Z,99.90
2023-04-29T02:42:22.235Z,99.90
2023-04-29T02:44:50.882Z,99.90
2023-04-29T02:47:20.973Z,99.90
2023-04-29T02:49:49.551Z,99.90
2023-04-29T02:52:19.307Z,99.90
2023-04-29T02:54:47.815Z,99.90
2023-04-29T02:57:16.312Z,99.90
2023-04-29T02:59:44.928Z,99.90
2023-04-29T03:02:13.615Z,99.90
2023-04-29T03:04:43.622Z,99.90
2023-04-29T03:07:12.196Z,99.90
2023-04-29T03:09:42.168Z,99.90
2023-04-29T03:12:10.677Z,99.90
2023-04-29T03:14:39.226Z,99.90
2023-04-29T03:17:08.072Z,99.90
2023-04-29T03:19:36.664Z,99.90
2023-04-29T03:22:08.412Z,99.90
2023-04-29T03:24:37.199Z,99.90
2023-04-29T03:27:06.097Z,99.90
2023-04-29T03:29:34.744Z,99.90
2023-04-29T03:32:03.280Z,99.90
2023-04-29T03:34:32.466Z,99.90
2023-04-29T03:37:01.487Z,99.90
2023-04-29T03:39:32.822Z,99.90
2023-04-29T03:42:01.518Z,99.90
2023-04-29T03:44:30.830Z,99.90
2023-04-29T03:46:59.347Z,99.90
2023-04-29T03:49:27.934Z,99.90
2023-04-29T03:51:56.564Z,99.90
2023-04-29T03:54:25.472Z,99.90
2023-04-29T03:56:56.539Z,99.90
2023-04-29T03:59:25.094Z,99.90
2023-04-29T04:01:54.571Z,99.90
2023-04-29T04:04:23.329Z,99.90
2023-04-29T04:06:52.333Z,99.90
2023-04-29T04:09:20.915Z,99.90
2023-04-29T04:11:49.441Z,99.90
2023-04-29T04:14:19.479Z,99.90
2023-04-29T04:16:50.927Z,99.90
2023-04-29T04:19:19.453Z,99.90
2023-04-29T04:21:50.861Z,99.90
2023-04-29T04:24:19.458Z,99.90
2023-04-29T04:26:48.077Z,99.90
2023-04-29T04:29:16.711Z,99.90
2023-04-29T04:31:47.322Z,99.90
2023-04-29T04:34:16.057Z,99.90
2023-04-29T04:36:44.728Z,99.90
2023-04-29T04:39:13.369Z,99.90
2023-04-29T04:41:41.967Z,99.90
2023-04-29T04:44:11.078Z,99.90
2023-04-29T04:46:39.941Z,99.90
2023-04-29T04:49:09.980Z,99.90
2023-04-29T04:51:38.529Z,99.90
2023-04-29T04:54:07.159Z,99.90
2023-04-29T04:56:37.820Z,99.90
2023-04-29T04:59:06.592Z,99.90
2023-04-29T05:01:35.617Z,99.90
2023-04-29T05:04:04.424Z,99.90
2023-04-29T05:06:34.464Z,99.90
2023-04-29T05:09:03.510Z,99.90
2023-04-29T05:11:32.478Z,99.90
2023-04-29T05:14:01.274Z,99.90
2023-04-29T05:16:29.957Z,99.90
2023-04-29T05:18:58.490Z,99.90
2023-04-29T05:21:27.034Z,99.90
2023-04-29T05:23:56.947Z,99.90
2023-04-29T05:26:25.622Z,99.90
2023-04-29T05:28:55.101Z,99.90
2023-04-29T05:31:23.763Z,99.90
2023-04-29T05:33:52.336Z,99.90
2023-04-29T05:36:20.848Z,99.90
2023-04-29T05:38:49.382Z,99.90
2023-04-29T05:41:19.413Z,99.90
2023-04-29T05:43:48.042Z,99.90
2023-04-29T05:46:16.825Z,99.90
2023-04-29T05:48:45.454Z,99.90
2023-04-29T05:51:14.961Z,99.90
2023-04-29T05:53:43.764Z,99.90
2023-04-29T05:56:12.367Z,99.90
2023-04-29T05:58:42.282Z,99.90
2023-04-29T06:01:11.019Z,99.90
2023-04-29T06:03:39.744Z,99.90
2023-04-29T06:06:08.720Z,99.90
2023-04-29T06:08:37.366Z,99.90
2023-04-29T06:11:06.365Z,99.90
2023-04-29T06:13:35.019Z,99.90
2023-04-29T06:16:05.286Z,99.90
2023-04-29T06:18:33.909Z,99.90
2023-04-29T06:21:02.417Z,99.90
2023-04-29T06:23:32.448Z,99.90
2023-04-29T06:26:01.081Z,99.90
2023-04-29T06:28:32.170Z,99.90
2023-04-29T06:31:00.965Z,99.90
2023-04-29T06:33:31.595Z,99.90
2023-04-29T06:36:00.206Z,99.90
2023-04-29T06:38:28.815Z,99.40
2023-04-29T06:40:58.662Z,99.10
2023-04-29T06:43:27.470Z,98.30
2023-04-29T06:45:56.081Z,98.70
2023-04-29T06:48:25.682Z,98.60
2023-04-29T06:50:56.982Z,98.30
2023-04-29T06:53:26.373Z,98.20
2023-04-29T06:55:55.044Z,97.70
2023-04-29T06:58:26.172Z,98.10
2023-04-29T07:00:54.907Z,97.90
2023-04-29T07:03:24.252Z,97.30
2023-04-29T07:05:54.246Z,98.10
2023-04-29T07:08:23.405Z,97.20
2023-04-29T07:10:56.924Z,97.70
2023-04-29T07:13:25.685Z,98.00
2023-04-29T07:15:54.514Z,97.70
2023-04-29T07:18:23.145Z,96.50
2023-04-29T07:20:53.174Z,96.00
2023-04-29T07:23:23.603Z,95.60
2023-04-29T07:25:53.096Z,94.70
2023-04-29T07:28:21.826Z,95.40
2023-04-29T07:30:51.028Z,95.70
2023-04-29T07:33:20.307Z,94.10
2023-04-29T07:35:49.039Z,94.10
2023-04-29T07:38:18.032Z,93.60
2023-04-29T07:40:48.234Z,92.50
2023-04-29T07:43:17.390Z,92.50
2023-04-29T07:45:46.239Z,92.40
2023-04-29T07:48:15.278Z,92.80
2023-04-29T07:50:44.571Z,92.50
2023-04-29T07:53:13.394Z,92.50
2023-04-29T07:55:43.013Z,92.70
2023-04-29T07:58:13.209Z,90.80
2023-04-29T08:00:41.966Z,90.60
2023-04-29T08:03:10.862Z,90.50
2023-04-29T08:05:40.304Z,90.20
2023-04-29T08:08:09.110Z,89.90
2023-04-29T08:10:43.393Z,87.70
2023-04-29T08:13:13.728Z,88.30
2023-04-29T08:15:42.561Z,87.10
2023-04-29T08:18:11.173Z,87.40
2023-04-29T08:20:39.840Z,87.40
2023-04-29T08:23:08.489Z,88.40
2023-04-29T08:25:37.357Z,87.50
2023-04-29T08:28:06.071Z,87.90
2023-04-29T08:30:40.038Z,89.80
2023-04-29T08:33:08.734Z,86.10
2023-04-29T08:35:38.899Z,86.30
2023-04-29T08:38:07.738Z,86.80
2023-04-29T08:40:36.877Z,87.60
2023-04-29T08:43:06.319Z,87.90
2023-04-29T08:45:36.923Z,88.00
2023-04-29T08:48:06.640Z,86.80
2023-04-29T08:50:39.708Z,85.00
2023-04-29T08:53:09.100Z,86.30
2023-04-29T08:55:42.617Z,85.50
2023-04-29T08:58:12.447Z,86.50
2023-04-29T09:00:44.231Z,86.30
2023-04-29T09:03:21.672Z,84.70
2023-04-29T09:05:57.244Z,84.40
2023-04-29T09:08:28.705Z,85.00
2023-04-29T09:10:58.245Z,83.30
2023-04-29T09:13:27.771Z,83.00
2023-04-29T09:15:58.164Z,83.20
2023-04-29T09:18:47.140Z,82.20
2023-04-29T09:21:19.674Z,82.70
2023-04-29T09:23:52.215Z,82.00
2023-04-29T09:26:22.635Z,82.20
2023-04-29T09:29:09.492Z,83.70
2023-04-29T09:31:40.816Z,84.90
2023-04-29T09:34:10.072Z,82.80
2023-04-29T09:36:45.198Z,84.30
2023-04-29T09:39:15.519Z,85.20
2023-04-29T09:42:00.374Z,84.70
2023-04-29T09:44:33.654Z,83.50
2023-04-29T09:47:05.920Z,83.40
2023-04-29T09:49:37.656Z,81.20
2023-04-29T09:52:08.309Z,83.80
2023-04-29T09:54:39.071Z,83.70
2023-04-29T09:57:09.242Z,84.20
2023-04-29T09:59:38.946Z,84.50
2023-04-29T10:02:18.052Z,83.20
2023-04-29T10:04:48.303Z,84.00
2023-04-29T10:07:18.777Z,83.00
2023-04-29T10:09:48.156Z,83.10
2023-04-29T10:12:19.033Z,81.70
2023-04-29T10:14:55.290Z,82.50
2023-04-29T10:17:34.428Z,83.00
2023-04-29T10:20:07.618Z,82.80
2023-04-29T10:22:44.440Z,82.10
2023-04-29T10:25:14.761Z,82.90
2023-04-29T10:27:44.774Z,81.50
2023-04-29T10:30:18.187Z,83.20
2023-04-29T10:32:52.214Z,82.60
2023-04-29T10:35:24.637Z,81.10
2023-04-29T10:37:54.872Z,81.90
2023-04-29T10:40:29.835Z,80.10
2023-04-29T10:42:59.926Z,80.70
2023-04-29T10:45:31.999Z,80.90
2023-04-29T10:48:19.015Z,79.20
2023-04-29T10:51:03.901Z,80.90
2023-04-29T10:53:32.692Z,81.90
2023-04-29T10:56:07.138Z,82.00
2023-04-29T10:58:46.075Z,80.90
2023-04-29T11:01:16.398Z,83.50
2023-04-29T11:03:59.139Z,80.70
2023-04-29T11:06:41.157Z,80.90
2023-04-29T11:09:12.449Z,79.80
2023-04-29T11:11:47.002Z,80.70
2023-04-29T11:14:16.828Z,79.50
2023-04-29T11:16:55.219Z,80.70
2023-04-29T11:19:27.468Z,81.10
2023-04-29T11:22:18.454Z,80.30
2023-04-29T11:24:52.465Z,79.60
2023-04-29T11:27:25.732Z,81.40
2023-04-29T11:29:59.554Z,80.10
2023-04-29T11:32:29.700Z,78.10
2023-04-29T11:35:09.789Z,77.90
2023-04-29T11:37:38.786Z,77.60
2023-04-29T11:40:08.999Z,76.40
2023-04-29T11:42:38.179Z,75.20
2023-04-29T11:45:07.905Z,76.60
2023-04-29T11:47:36.570Z,77.90
2023-04-29T11:50:10.580Z,77.60
2023-04-29T11:52:42.020Z,76.00
2023-04-29T11:55:12.024Z,75.70
2023-04-29T11:57:40.869Z,74.70
2023-04-29T12:00:11.929Z,75.70
2023-04-29T12:02:40.693Z,74.30
2023-04-29T12:05:13.384Z,73.80
2023-04-29T12:07:42.507Z,73.00
2023-04-29T12:10:12.249Z,72.60
2023-04-29T12:12:49.957Z,72.50
2023-04-29T12:15:23.466Z,73.30
2023-04-29T12:17:52.297Z,73.90
2023-04-29T12:20:22.874Z,74.00
2023-04-29T12:22:51.425Z,74.60
2023-04-29T12:25:21.138Z,73.30
2023-04-29T12:27:50.498Z,72.70
2023-04-29T12:30:19.090Z,72.20
2023-04-29T12:32:48.855Z,73.00
2023-04-29T12:35:18.344Z,70.80
2023-04-29T12:37:52.118Z,70.00
2023-04-29T12:40:21.723Z,70.80
2023-04-29T12:42:50.510Z,70.10
2023-04-29T12:45:30.388Z,68.60
2023-04-29T12:47:59.586Z,69.40
2023-04-29T12:50:33.201Z,70.00
2023-04-29T12:53:04.908Z,70.60
2023-04-29T12:55:34.741Z,70.10
2023-04-29T12:58:03.698Z,69.00
2023-04-29T13:00:32.556Z,69.40
2023-04-29T13:03:01.674Z,71.00
2023-04-29T13:05:30.429Z,70.30
2023-04-29T13:07:59.081Z,68.80
2023-04-29T13:10:29.774Z,69.80
2023-04-29T13:12:58.342Z,68.40
2023-04-29T13:15:27.163Z,69.60
2023-04-29T13:17:55.840Z,69.00
2023-04-29T13:20:24.595Z,69.60
2023-04-29T13:22:53.616Z,69.20
2023-04-29T13:25:22.268Z,68.00
2023-04-29T13:27:52.948Z,68.70
2023-04-29T13:30:21.548Z,68.20
2023-04-29T13:32:55.126Z,67.20
2023-04-29T13:35:27.285Z,67.90
2023-04-29T13:37:55.891Z,67.90
2023-04-29T13:40:27.923Z,68.10
2023-04-29T13:43:05.893Z,67.50
2023-04-29T13:45:39.849Z,66.00
2023-04-29T13:48:50.258Z,67.30
2023-04-29T13:54:41.419Z,66.20
2023-04-29T14:02:21.381Z,65.40
2023-04-29T14:04:28.638Z,66.80
2023-04-29T14:06:58.312Z,67.50
2023-04-29T14:09:27.007Z,68.60
2023-04-29T14:11:55.846Z,69.50
2023-04-29T14:14:25.949Z,70.40
2023-04-29T14:16:54.635Z,70.00
2023-04-29T14:19:23.199Z,69.20
2023-04-29T14:21:52.343Z,69.30
2023-04-29T14:24:20.954Z,68.70
2023-04-29T14:26:49.700Z,68.70
2023-04-29T14:29:18.554Z,69.00
2023-04-29T14:31:48.844Z,69.50
2023-04-29T14:34:20.267Z,68.80
2023-04-29T14:36:49.296Z,70.00
2023-04-29T14:39:18.085Z,69.30
2023-04-29T14:41:47.699Z,71.50
2023-04-29T14:44:16.753Z,71.20
2023-04-29T14:46:45.556Z,71.10
2023-04-29T14:49:15.838Z,72.00
2023-04-29T14:51:44.730Z,72.40
2023-04-29T14:54:13.627Z,72.70
2023-04-29T14:56:42.268Z,73.70
2023-04-29T14:59:11.393Z,73.80
2023-04-29T15:01:41.385Z,73.50
2023-04-29T15:04:10.243Z,73.10
2023-04-29T15:06:40.998Z,72.80
2023-04-29T15:09:09.669Z,73.20
2023-04-29T15:11:38.567Z,73.30
2023-04-29T15:14:07.295Z,74.70
2023-04-29T15:16:36.525Z,73.70
2023-04-29T15:19:05.190Z,73.20
2023-04-29T15:21:34.716Z,73.70
2023-04-29T15:24:04.806Z,74.90
2023-04-29T15:26:34.796Z,75.20
2023-04-29T15:29:03.653Z,74.80
2023-04-29T15:31:32.467Z,73.90
2023-04-29T15:34:01.219Z,73.70
2023-04-29T15:36:31.300Z,74.50
2023-04-29T15:39:00.483Z,74.00
2023-04-29T15:41:30.548Z,74.60
2023-04-29T15:43:59.514Z,75.00
2023-04-29T15:46:28.781Z,75.60
2023-04-29T15:48:57.482Z,74.80
2023-04-29T15:51:26.202Z,76.50
2023-04-29T15:53:54.873Z,75.60
2023-04-29T15:56:23.504Z,75.00
2023-04-29T15:58:54.220Z,75.20
2023-04-29T16:01:22.918Z,75.30
2023-04-29T16:03:52.124Z,75.40
2023-04-29T16:06:20.835Z,75.70
2023-04-29T16:08:50.444Z,75.50
2023-04-29T16:11:19.054Z,76.10
2023-04-29T16:13:47.873Z,76.90
2023-04-29T16:16:18.035Z,76.80
2023-04-29T16:18:46.640Z,76.90
2023-04-29T16:21:15.208Z,77.00
2023-04-29T16:23:43.857Z,77.70
2023-04-29T16:26:12.702Z,78.40
2023-04-29T16:28:41.831Z,79.60
2023-04-29T16:31:13.120Z,79.20
2023-04-29T16:33:43.261Z,79.80
2023-04-29T16:36:12.469Z,80.10
2023-04-29T16:38:41.173Z,80.40
2023-04-29T16:41:09.717Z,80.90
2023-04-29T16:43:38.304Z,81.40
2023-04-29T16:46:07.171Z,80.80
2023-04-29T16:48:35.909Z,81.80
2023-04-29T16:51:06.161Z,82.30
2023-04-29T16:53:34.840Z,82.30
2023-04-29T16:56:03.427Z,82.70
2023-04-29T16:58:32.024Z,82.90
2023-04-29T17:01:00.804Z,83.60
2023-04-29T17:03:29.467Z,84.10
2023-04-29T17:05:58.158Z,84.90
2023-04-29T17:08:28.504Z,85.00
2023-04-29T17:10:57.166Z,85.50
2023-04-29T17:13:26.066Z,86.90
2023-04-29T17:15:54.766Z,86.40
2023-04-29T17:18:23.555Z,87.30
2023-04-29T17:20:52.288Z,87.40
2023-04-29T17:23:20.894Z,87.20
2023-04-29T17:25:50.924Z,87.70
2023-04-29T17:28:19.730Z,87.30
2023-04-29T17:30:48.418Z,87.20
2023-04-29T17:33:17.800Z,87.30
2023-04-29T17:35:46.509Z,87.60
2023-04-29T17:38:15.269Z,88.40
2023-04-29T17:40:43.975Z,88.60
2023-04-29T17:43:14.060Z,88.60
2023-04-29T17:45:42.953Z,88.90
2023-04-29T17:48:11.652Z,89.10
2023-04-29T17:50:40.197Z,89.60
2023-04-29T17:53:08.855Z,89.70
2023-04-29T17:55:40.194Z,89.90
2023-04-29T17:58:08.880Z,90.00
2023-04-29T18:00:41.832Z,90.10
2023-04-29T18:03:10.611Z,90.20
2023-04-29T18:05:39.256Z,90.30
2023-04-29T18:08:07.899Z,90.40
2023-04-29T18:10:36.457Z,90.40
2023-04-29T18:13:05.168Z,90.80
2023-04-29T18:15:34.142Z,90.80
2023-04-29T18:18:04.181Z,91.20
2023-04-29T18:20:32.996Z,91.60
2023-04-29T18:23:02.020Z,91.80
2023-04-29T18:25:31.160Z,91.60
2023-04-29T18:28:13.692Z,91.60
2023-04-29T18:30:50.332Z,91.60
2023-04-29T18:33:20.538Z,92.20
2023-04-29T18:35:49.358Z,92.60
2023-04-29T18:38:18.120Z,92.50
2023-04-29T18:40:46.689Z,92.40
2023-04-29T18:43:18.279Z,92.60
2023-04-29T18:45:47.344Z,92.90
2023-04-29T18:48:16.081Z,92.70
2023-04-29T18:50:46.837Z,92.90
2023-04-29T18:53:15.547Z,93.00
2023-04-29T18:55:44.604Z,93.30
2023-04-29T18:58:13.399Z,93.30
2023-04-29T19:00:42.351Z,93.10
2023-04-29T19:03:11.259Z,93.10
2023-04-29T19:05:39.967Z,93.20
2023-04-29T19:08:10.335Z,93.40
2023-04-29T19:10:40.118Z,93.70
2023-04-29T19:13:08.663Z,93.90
2023-04-29T19:15:37.486Z,94.30
2023-04-29T19:18:06.240Z,94.90
2023-04-29T19:20:35.644Z,95.20
2023-04-29T19:23:04.201Z,95.70
2023-04-29T19:25:34.358Z,95.80
2023-04-29T19:28:03.391Z,95.90
2023-04-29T19:30:33.449Z,96.20
2023-04-29T19:33:02.300Z,96.00
2023-04-29T19:35:31.286Z,96.50
2023-04-29T19:37:59.949Z,96.40
2023-04-29T19:40:29.024Z,96.50
2023-04-29T19:42:59.046Z,96.90
2023-04-29T19:45:27.666Z,97.20
2023-04-29T19:47:56.572Z,97.50
2023-04-29T19:50:26.573Z,97.70
2023-04-29T19:52:55.210Z,98.00
2023-04-29T19:55:24.408Z,98.50
2023-04-29T19:57:55.916Z,98.80
2023-04-29T20:00:28.583Z,99.10
2023-04-29T20:02:58.479Z,99.70
2023-04-29T20:05:28.740Z,99.90
2023-04-29T20:07:59.902Z,99.90
2023-04-29T20:13:39.721Z,99.90
2023-04-29T20:16:22.648Z,99.90
2023-04-29T20:19:02.047Z,99.90
2023-04-29T20:21:35.860Z,99.90
2023-04-29T20:24:09.501Z,99.90
2023-04-29T20:26:47.278Z,99.90
2023-04-29T20:29:28.019Z,99.90
2023-04-29T20:32:19.685Z,99.90
2023-04-29T20:34:59.111Z,99.90
2023-04-29T20:37:28.034Z,99.90
2023-04-29T20:39:56.643Z,99.90
2023-04-29T20:42:25.300Z,99.90
2023-04-29T20:44:57.330Z,99.90
2023-04-29T20:47:31.888Z,99.90
2023-04-29T20:50:06.254Z,99.90
2023-04-29T20:52:41.587Z,99.90
2023-04-29T20:55:10.757Z,99.90
2023-04-29T20:57:39.955Z,99.90
2023-04-29T21:00:09.825Z,99.90
2023-04-29T21:02:40.390Z,99.90
2023-04-29T21:05:10.351Z,99.90
2023-04-29T21:07:39.102Z,99.90
2023-04-29T21:10:08.634Z,99.90
2023-04-29T21:12:37.544Z,99.90
2023-04-29T21:15:06.948Z,99.90
2023-04-29T21:17:35.536Z,99.90
2023-04-29T21:20:07.907Z,99.90
2023-04-29T21:22:36.553Z,99.90
2023-04-29T21:25:05.572Z,99.90
2023-04-29T21:27:36.063Z,99.90
2023-04-29T21:30:05.188Z,99.90
2023-04-29T21:32:34.017Z,99.90
2023-04-29T21:35:02.709Z,99.90
2023-04-29T21:37:34.122Z,99.90
2023-04-29T21:40:04.496Z,99.90
2023-04-29T21:42:33.495Z,99.90
2023-04-29T21:45:03.231Z,99.90
2023-04-29T21:47:32.211Z,99.90
2023-04-29T21:50:01.408Z,99.90
2023-04-29T21:52:35.100Z,99.90
2023-04-29T21:55:04.075Z,99.90
2023-04-29T21:57:43.517Z,99.90
2023-04-29T22:00:31.014Z,99.90
2023-04-29T22:03:00.226Z,99.90
2023-04-29T22:05:28.940Z,99.90
2023-04-29T22:08:01.546Z,99.90
2023-04-29T22:10:30.758Z,99.90
2023-04-29T22:12:59.578Z,99.90
2023-04-29T22:15:29.515Z,99.90
2023-04-29T22:17:58.602Z,99.90
2023-04-29T22:20:27.697Z,99.90
2023-04-29T22:22:56.670Z,99.90
2023-04-29T22:25:26.961Z,99.90
2023-04-29T22:27:55.759Z,99.90
2023-04-29T22:30:24.748Z,99.90
2023-04-29T22:32:53.356Z,99.90
2023-04-29T22:35:22.021Z,99.90
2023-04-29T22:37:50.774Z,99.90
2023-04-29T22:40:19.465Z,99.90
2023-04-29T22:42:49.366Z,99.90
2023-04-29T22:45:18.155Z,99.90
2023-04-29T22:47:46.868Z,99.90
2023-04-29T22:50:15.477Z,99.90
2023-04-29T22:52:43.998Z,99.90
2023-04-29T22:55:12.529Z,99.90
2023-04-29T22:57:41.135Z,99.90
2023-04-29T23:00:13.305Z,99.90
2023-04-29T23:02:42.361Z,99.90
2023-04-29T23:05:11.258Z,99.90
2023-04-29T23:07:39.740Z,99.90
2023-04-29T23:10:09.046Z,99.90
2023-04-29T23:12:38.111Z,99.90
2023-04-29T23:15:07.254Z,99.90
2023-04-29T23:17:39.933Z,99.90
2023-04-29T23:20:09.429Z,99.90
2023-04-29T23:22:38.025Z,99.90
2023-04-29T23:25:07.316Z,99.90
2023-04-29T23:27:35.862Z,99.90
2023-04-29T23:30:04.545Z,99.90
2023-04-29T23:32:33.073Z,99.90
2023-04-29T23:35:03.066Z,99.90
2023-04-29T23:37:31.670Z,99.90
2023-04-29T23:40:00.431Z,99.90
2023-04-29T23:42:28.915Z,99.90
2023-04-29T23:44:57.503Z,99.90
2023-04-29T23:47:26.206Z,99.90
2023-04-29T23:49:55.219Z,99.90
2023-04-29T23:52:26.151Z,99.90
2023-04-29T23:54:54.735Z,99.90
2023-04-29T23:57:23.299Z,99.90
2023-04-29T23:59:53.124Z,99.90
